Time;durP1;ratioP1;P1;durP2;ratioP2;P2;SDS_P1;SDS_P2;PMS_P1;PMS_P2;Temp;Humidity;BMP_temperature;BMP_pressure;BME280_temperature;BME280_humidity;BME280_pressure;Samples;Min_cycle;Max_cycle;Signal;HPM_P1;HPM_P2
2022/08/18 00:01:23;;;;;;;16.25;9.75;;;;;;;19.12;81.62;95356.14;1831868;78;21028;-70
2022/08/18 00:03:51;;;;;;;14.68;8.20;;;;;;;19.16;81.94;95357.71;1831814;78;21491;-70
2022/08/18 00:06:18;;;;;;;11.12;8.30;;;;;;;19.20;81.75;95365.93;1831968;78;20982;-70
2022/08/18 00:08:45;;;;;;;13.08;8.83;;;;;;;19.20;81.58;95360.58;1832021;78;21009;-70
2022/08/18 00:11:12;;;;;;;14.33;9.58;;;;;;;19.14;80.93;95357.78;1831845;78;20982;-70
2022/08/18 00:13:38;;;;;;;9.30;8.23;;;;;;;19.06;81.21;95354.69;1832017;78;21019;-70
2022/08/18 00:16:05;;;;;;;13.28;9.23;;;;;;;19.06;81.10;95360.03;1832042;78;20977;-70
2022/08/18 00:18:32;;;;;;;9.55;8.50;;;;;;;18.98;81.46;95362.28;1831840;78;21001;-70
2022/08/18 00:21:01;;;;;;;11.35;8.23;;;;;;;18.97;81.68;95366.73;1832014;78;21117;-70
2022/08/18 00:23:31;;;;;;;10.98;8.40;;;;;;;18.93;81.52;95359.00;1831970;78;20970;-70
2022/08/18 00:25:58;;;;;;;13.38;8.38;;;;;;;18.89;82.21;95364.11;1831671;78;21006;-70
2022/08/18 00:28:24;;;;;;;11.40;8.08;;;;;;;18.83;81.99;95363.98;1832063;78;20990;-70
2022/08/18 00:30:51;;;;;;;14.15;9.13;;;;;;;18.75;82.64;95371.08;1831711;78;21032;-70
2022/08/18 00:33:18;;;;;;;10.65;8.83;;;;;;;18.74;82.88;95364.44;1831848;78;21132;-70
2022/08/18 00:35:45;;;;;;;11.88;8.25;;;;;;;18.78;83.02;95364.70;1831598;78;21082;-70
2022/08/18 00:38:12;;;;;;;13.00;8.78;;;;;;;18.81;82.74;95364.05;1832017;78;21359;-70
2022/08/18 00:40:43;;;;;;;15.53;8.65;;;;;;;18.91;82.48;95367.56;1832195;78;20998;-70
2022/08/18 00:43:18;;;;;;;15.50;8.25;;;;;;;18.85;81.62;95359.87;1832177;78;20986;-70
2022/08/18 00:45:46;;;;;;;14.47;9.20;;;;;;;18.76;82.08;95363.44;1829150;78;21030;-70
2022/08/18 00:48:14;;;;;;;11.65;8.88;;;;;;;18.74;82.53;95356.42;1826086;78;21457;-70
2022/08/18 00:50:58;;;;;;;12.53;8.15;;;;;;;18.76;82.43;95359.91;1826455;78;21009;-70
2022/08/18 00:53:36;;;;;;;12.47;9.23;;;;;;;18.68;82.03;95356.28;1805091;78;21007;-70
2022/08/18 00:56:09;;;;;;;11.20;8.68;;;;;;;18.69;82.43;95355.80;1794605;78;20954;-70
2022/08/18 00:58:44;;;;;;;13.58;9.08;;;;;;;18.73;82.32;95357.38;1826036;78;21006;-70
2022/08/18 01:01:12;;;;;;;12.65;9.20;;;;;;;18.69;81.93;95354.47;1825020;78;21532;-70
2022/08/18 01:03:42;;;;;;;13.88;9.30;;;;;;;18.55;81.98;95358.77;1826089;78;21472;-70
2022/08/18 01:06:17;;;;;;;11.70;7.60;;;;;;;18.46;82.66;95359.24;1825938;78;20989;-70
2022/08/18 01:08:44;;;;;;;11.15;8.60;;;;;;;18.36;81.96;95354.00;1816336;78;21042;-70
2022/08/18 01:11:11;;;;;;;12.33;8.58;;;;;;;18.30;82.36;95355.20;1825856;78;21082;-70
2022/08/18 01:13:41;;;;;;;9.63;8.63;;;;;;;18.32;82.35;95359.10;1825348;78;21003;-70
2022/08/18 01:21:49;;;;;;;12.53;8.55;;;;;;;18.19;82.14;95356.22;1826083;78;21452;-70
2022/08/18 01:24:17;;;;;;;10.30;8.28;;;;;;;18.18;82.42;95357.17;1826107;78;21109;-70
2022/08/18 01:26:49;;;;;;;13.15;9.20;;;;;;;18.15;82.84;95364.02;1826073;78;20959;-70
2022/08/18 01:29:14;;;;;;;12.35;8.08;;;;;;;18.19;83.12;95364.70;1825832;78;21491;-70
2022/08/18 01:31:48;;;;;;;15.90;9.35;;;;;;;18.15;82.70;95365.34;1826024;78;21062;-70
2022/08/18 01:34:15;;;;;;;12.43;8.63;;;;;;;18.06;82.43;95362.66;1825507;78;21010;-70
2022/08/18 01:36:43;;;;;;;11.22;9.03;;;;;;;18.02;82.21;95361.59;1826070;78;21524;-70
2022/08/18 01:39:12;;;;;;;10.58;7.95;;;;;;;18.00;82.28;95364.33;1826174;78;21073;-70
2022/08/18 01:41:40;;;;;;;8.78;7.53;;;;;;;17.98;81.82;95362.20;1825952;78;21073;-70
2022/08/18 01:44:10;;;;;;;11.12;7.90;;;;;;;17.95;81.88;95356.55;1826255;78;21037;-70
2022/08/18 01:46:40;;;;;;;10.58;7.97;;;;;;;17.91;81.77;95364.31;1826124;78;21029;-70
2022/08/18 01:49:09;;;;;;;13.03;8.55;;;;;;;17.81;81.42;95365.72;1825943;78;20991;-70
2022/08/18 01:51:36;;;;;;;10.75;7.92;;;;;;;17.76;82.08;95357.05;1826131;78;21013;-70
2022/08/18 01:54:04;;;;;;;12.45;8.80;;;;;;;17.69;82.13;95358.34;1826192;78;21468;-70
2022/08/18 01:56:31;;;;;;;13.45;8.38;;;;;;;17.70;82.92;95356.91;1825897;78;21519;-70
2022/08/18 01:58:57;;;;;;;15.48;8.53;;;;;;;17.75;82.98;95355.34;1826226;78;20954;-70
2022/08/18 02:01:26;;;;;;;10.32;8.45;;;;;;;17.69;82.64;95353.86;1825894;78;20998;-70
2022/08/18 02:03:58;;;;;;;11.53;7.85;;;;;;;17.67;82.67;95352.20;1826171;78;21496;-70
2022/08/18 02:06:25;;;;;;;13.15;8.83;;;;;;;17.66;82.86;95355.80;1826094;78;20975;-70
2022/08/18 02:08:52;;;;;;;17.62;8.65;;;;;;;17.62;82.89;95352.91;1826006;78;21018;-70
2022/08/18 02:11:19;;;;;;;11.15;8.73;;;;;;;17.60;83.13;95350.30;1825909;78;21053;-70
2022/08/18 02:13:46;;;;;;;11.90;8.65;;;;;;;17.62;83.58;95344.91;1826146;78;20990;-70
2022/08/18 02:16:12;;;;;;;9.13;8.08;;;;;;;17.60;83.53;95343.63;1825812;78;20954;-70
2022/08/18 02:18:39;;;;;;;16.27;8.53;;;;;;;17.57;83.46;95337.60;1826130;78;21358;-70
2022/08/18 02:21:11;;;;;;;16.57;8.13;;;;;;;17.58;84.02;95332.64;1825954;78;21082;-70
2022/08/18 02:23:39;;;;;;;14.23;8.30;;;;;;;17.61;83.25;95333.81;1826168;78;21006;-70
2022/08/18 02:26:09;;;;;;;10.95;8.38;;;;;;;17.60;83.46;95330.30;1826364;78;21017;-70
2022/08/18 02:28:37;;;;;;;11.70;9.15;;;;;;;17.63;83.51;95329.27;1826241;78;21006;-70
2022/08/18 02:31:11;;;;;;;10.48;8.50;;;;;;;17.69;83.61;95327.65;1825860;78;20982;-70
2022/08/18 02:33:38;;;;;;;13.85;8.33;;;;;;;17.69;83.03;95326.31;1826235;78;21098;-70
2022/08/18 02:36:10;;;;;;;14.75;9.05;;;;;;;17.61;82.78;95326.67;1826093;78;21066;-70
2022/08/18 02:38:34;;;;;;;15.08;8.30;;;;;;;17.56;83.00;95335.38;1824665;78;21024;-70
2022/08/18 02:41:05;;;;;;;14.53;8.20;;;;;;;17.46;82.79;95334.11;1826322;78;20967;-70
2022/08/18 02:43:32;;;;;;;11.40;7.47;;;;;;;17.39;83.16;95337.58;1826228;78;20970;-70
2022/08/18 02:45:59;;;;;;;13.15;8.20;;;;;;;17.34;82.88;95337.38;1824966;78;20998;-70
2022/08/18 02:48:32;;;;;;;12.35;7.83;;;;;;;17.28;83.51;95332.75;1821314;79;20995;-70
2022/08/18 02:51:08;;;;;;;12.40;8.50;;;;;;;17.21;83.10;95331.79;1819974;79;21006;-70
2022/08/18 02:53:36;;;;;;;10.83;8.10;;;;;;;17.19;83.22;95337.22;1821510;79;21022;-70
2022/08/18 02:56:23;;;;;;;8.30;7.47;;;;;;;17.18;82.93;95335.94;1821294;79;20991;-70
2022/08/18 02:58:54;;;;;;;13.88;8.88;;;;;;;17.19;83.03;95331.03;1820996;79;21038;-70
2022/08/18 03:01:25;;;;;;;14.05;8.03;;;;;;;17.13;83.64;95333.50;1821299;79;21015;-70
2022/08/18 03:03:53;;;;;;;12.13;8.80;;;;;;;17.11;84.06;95327.84;1820983;79;21065;-70
2022/08/18 03:06:21;;;;;;;10.80;8.20;;;;;;;17.12;83.59;95325.59;1821331;79;21042;-70
2022/08/18 03:08:50;;;;;;;10.32;8.73;;;;;;;17.17;83.51;95338.23;1821474;79;21074;-70
2022/08/18 03:11:22;;;;;;;14.03;9.08;;;;;;;17.16;83.88;95338.70;1821288;79;20994;-70
2022/08/18 03:13:49;;;;;;;14.05;9.08;;;;;;;17.21;84.04;95343.78;1821217;79;21014;-70
2022/08/18 03:16:17;;;;;;;12.53;8.23;;;;;;;17.27;83.76;95343.03;1821013;79;21034;-70
2022/08/18 03:18:45;;;;;;;11.53;8.18;;;;;;;17.25;83.28;95349.38;1821231;79;21093;-70
2022/08/18 03:21:17;;;;;;;14.75;8.50;;;;;;;17.18;83.15;95346.61;1820942;79;20999;-70
2022/08/18 03:23:44;;;;;;;13.80;8.60;;;;;;;17.23;83.48;95345.91;1821308;79;21002;-70
2022/08/18 03:26:13;;;;;;;13.00;7.75;;;;;;;17.26;82.89;95351.09;1821180;79;21054;-70
2022/08/18 03:28:44;;;;;;;9.93;8.70;;;;;;;17.14;82.48;95343.72;1821683;79;21480;-70
2022/08/18 03:31:13;;;;;;;14.38;8.10;;;;;;;17.05;83.01;95344.53;1821281;79;21086;-70
2022/08/18 03:33:43;;;;;;;9.85;7.12;;;;;;;17.02;82.84;95345.16;1821162;79;21070;-70
2022/08/18 03:36:15;;;;;;;16.57;8.15;;;;;;;16.93;82.68;95347.77;1821036;79;21018;-70
2022/08/18 03:38:44;;;;;;;9.13;8.20;;;;;;;16.83;82.56;95344.71;1821319;79;20963;-70
2022/08/18 03:41:14;;;;;;;12.65;8.38;;;;;;;16.83;83.66;95338.05;1820807;79;21082;-70
2022/08/18 03:43:41;;;;;;;10.03;8.05;;;;;;;16.84;84.15;95337.09;1821552;79;21046;-70
2022/08/18 03:46:12;;;;;;;10.20;8.33;;;;;;;16.90;84.13;95337.75;1822963;78;21018;-70
2022/08/18 03:48:42;;;;;;;14.87;8.63;;;;;;;16.91;83.99;95340.34;1831816;78;21010;-70
2022/08/18 03:51:14;;;;;;;14.83;8.50;;;;;;;16.95;83.90;95346.38;1831941;78;21460;-70
2022/08/18 03:53:41;;;;;;;11.85;9.63;;;;;;;16.93;83.67;95339.78;1832050;78;21002;-70
2022/08/18 03:56:14;;;;;;;11.12;9.53;;;;;;;16.95;84.19;95341.91;1831517;78;21093;-70
2022/08/18 03:58:48;;;;;;;9.33;7.90;;;;;;;16.93;84.31;95342.45;1831394;78;21046;-70
2022/08/18 04:01:19;;;;;;;12.47;8.20;;;;;;;16.89;83.63;95338.22;1831968;78;21002;-70
2022/08/18 04:03:50;;;;;;;12.88;8.45;;;;;;;16.84;83.94;95345.56;1830696;78;21006;-70
2022/08/18 04:06:25;;;;;;;10.85;7.85;;;;;;;16.87;84.11;95349.41;1832188;78;21037;-70
2022/08/18 04:08:55;;;;;;;10.08;8.65;;;;;;;16.91;84.85;95342.13;1831940;78;20986;-70
2022/08/18 04:11:23;;;;;;;12.47;8.90;;;;;;;16.96;84.79;95346.77;1831941;78;21014;-70
2022/08/18 04:13:50;;;;;;;11.70;7.62;;;;;;;16.99;84.45;95350.64;1831999;78;21026;-70
2022/08/18 04:16:17;;;;;;;10.80;8.30;;;;;;;17.03;84.75;95359.76;1831506;78;21061;-70
2022/08/18 04:18:44;;;;;;;18.35;9.08;;;;;;;17.19;84.95;95353.21;1831779;78;20970;-70
2022/08/18 04:21:14;;;;;;;10.38;7.95;;;;;;;17.33;84.53;95351.67;1831988;78;20982;-70
2022/08/18 04:23:41;;;;;;;11.75;8.15;;;;;;;17.39;84.29;95357.58;1831846;78;21017;-70
2022/08/18 04:26:10;;;;;;;16.32;8.40;;;;;;;17.38;83.27;95362.50;1832005;78;21473;-70
2022/08/18 04:28:37;;;;;;;11.78;8.98;;;;;;;17.38;83.78;95365.64;1831973;78;21005;-70
2022/08/18 04:31:12;;;;;;;11.35;8.73;;;;;;;17.43;83.61;95367.14;1831873;78;20989;-70
2022/08/18 04:33:41;;;;;;;9.25;7.80;;;;;;;17.44;83.29;95360.88;1832402;78;21037;-70
2022/08/18 04:36:12;;;;;;;10.98;8.18;;;;;;;17.53;83.66;95368.41;1831915;78;20974;-70
2022/08/18 04:38:41;;;;;;;12.63;8.98;;;;;;;17.57;83.21;95364.28;1831941;78;20985;-70
2022/08/18 04:41:11;;;;;;;12.90;8.38;;;;;;;17.60;83.24;95370.79;1831890;78;20998;-70
2022/08/18 04:43:40;;;;;;;14.18;8.25;;;;;;;17.69;83.65;95370.34;1831836;78;20998;-70
2022/08/18 04:46:07;;;;;;;11.33;8.13;;;;;;;17.84;83.54;95366.04;1831562;78;21460;-70
2022/08/18 04:48:38;;;;;;;15.68;9.95;;;;;;;17.91;83.42;95360.31;1826106;78;21006;-70
2022/08/18 04:51:10;;;;;;;11.08;9.20;;;;;;;18.02;83.47;95367.80;1826138;78;20986;-70
2022/08/18 04:53:46;;;;;;;10.93;9.03;;;;;;;18.11;83.41;95369.11;1826126;78;21022;-70
2022/08/18 04:56:25;;;;;;;12.98;9.00;;;;;;;18.25;83.46;95363.92;1826274;78;21452;-70
2022/08/18 04:59:09;;;;;;;12.53;9.40;;;;;;;18.32;82.67;95361.33;1825914;78;21001;-70
2022/08/18 05:01:40;;;;;;;23.45;10.23;;;;;;;18.38;82.73;95357.46;1825586;78;20966;-70
2022/08/18 05:04:08;;;;;;;13.60;9.38;;;;;;;18.51;82.74;95355.85;1824144;78;21014;-70
2022/08/18 05:06:36;;;;;;;14.07;9.73;;;;;;;18.61;82.56;95362.91;1826114;78;21023;-70
2022/08/18 05:09:06;;;;;;;14.93;9.73;;;;;;;18.72;82.39;95357.86;1826086;78;20999;-70
2022/08/18 05:11:35;;;;;;;17.57;10.10;;;;;;;18.83;82.33;95354.63;1826143;78;20986;-70
2022/08/18 05:14:06;;;;;;;14.83;9.48;;;;;;;18.90;81.89;95354.68;1826468;78;21444;-70
2022/08/18 05:16:35;;;;;;;18.55;10.48;;;;;;;18.98;81.55;95356.45;1826295;78;21034;-70
2022/08/18 05:19:07;;;;;;;11.18;9.05;;;;;;;19.05;81.20;95353.42;1825779;78;21041;-70
2022/08/18 05:21:35;;;;;;;17.92;9.45;;;;;;;19.09;81.34;95359.00;1826201;78;21001;-70
2022/08/18 05:24:04;;;;;;;14.23;9.75;;;;;;;19.19;81.46;95355.72;1826051;78;20967;-70
2022/08/18 05:26:31;;;;;;;17.80;10.32;;;;;;;19.29;81.36;95354.72;1826051;78;20986;-70
2022/08/18 05:28:58;;;;;;;16.85;10.28;;;;;;;19.39;81.30;95347.05;1826155;78;20987;-70
2022/08/18 05:31:27;;;;;;;16.77;9.60;;;;;;;19.49;81.36;95349.58;1826166;78;20994;-70
2022/08/18 05:33:56;;;;;;;18.50;9.60;;;;;;;19.64;81.12;95349.16;1825841;78;21014;-70
2022/08/18 05:36:52;;;;;;;24.18;9.28;;;;;;;19.68;80.63;95345.41;1826224;78;20978;-70
2022/08/18 05:39:36;;;;;;;17.48;9.73;;;;;;;19.76;80.76;95347.14;1825836;78;21508;-70
2022/08/18 05:42:16;;;;;;;23.50;10.43;;;;;;;19.87;80.60;95347.36;1826089;78;21002;-70
2022/08/18 05:44:49;;;;;;;15.35;10.00;;;;;;;20.00;80.37;95349.31;1826163;78;20983;-71
2022/08/18 05:47:28;;;;;;;13.80;10.70;;;;;;;20.09;79.86;95354.98;1787668;80;20998;-70
2022/08/18 05:50:09;;;;;;;14.95;11.30;;;;;;;20.13;79.94;95356.99;1799051;80;21010;-70
2022/08/18 05:52:50;;;;;;;13.98;10.95;;;;;;;20.25;79.83;95355.40;1799964;79;21029;-70
2022/08/18 05:58:14;;;;;;;15.95;11.90;;;;;;;20.46;78.98;95346.06;1752879;79;21030;-70
2022/08/18 06:00:45;;;;;;;14.15;11.12;;;;;;;20.59;78.97;95347.55;1759187;81;21045;-69
2022/08/18 06:03:20;;;;;;;13.50;11.48;;;;;;;20.64;78.21;95348.60;1742371;82;21011;-70
2022/08/18 06:06:00;;;;;;;15.13;10.95;;;;;;;20.69;77.74;95350.52;1759177;81;21049;-70
2022/08/18 06:08:43;;;;;;;17.32;11.50;;;;;;;20.70;77.60;95351.74;1742005;82;21035;-70
2022/08/18 06:11:10;;;;;;;15.35;11.35;;;;;;;20.81;77.97;95355.09;1759176;81;21013;-70
2022/08/18 06:13:41;;;;;;;14.90;11.00;;;;;;;20.93;78.07;95361.50;1743003;82;21043;-70
2022/08/18 06:16:22;;;;;;;19.52;11.33;;;;;;;21.02;77.99;95362.27;1759089;81;21053;-70
2022/08/18 06:19:18;;;;;;;17.52;11.25;;;;;;;21.11;77.60;95364.84;1742800;82;21000;-70
2022/08/18 06:21:56;;;;;;;13.85;10.88;;;;;;;21.22;77.46;95362.80;1758061;81;21496;-70
2022/08/18 06:24:36;;;;;;;16.30;11.55;;;;;;;21.33;77.11;95362.50;1742735;82;20995;-70
2022/08/18 06:27:11;;;;;;;13.48;10.23;;;;;;;21.44;76.89;95364.52;1758911;81;21021;-70
2022/08/18 06:29:49;;;;;;;18.32;10.55;;;;;;;21.58;76.67;95363.62;1742414;82;21524;-70
2022/08/18 06:32:56;;;;;;;18.17;10.03;;;;;;;21.69;76.34;95358.39;1759326;81;21018;-70
2022/08/18 06:35:36;;;;;;;14.25;9.65;;;;;;;21.82;75.79;95359.32;1742763;82;21027;-70
2022/08/18 06:38:39;;;;;;;13.98;9.90;;;;;;;21.93;74.82;95364.45;1741620;82;21514;-70
2022/08/18 06:41:20;;;;;;;15.18;9.83;;;;;;;22.03;74.65;95366.41;1751029;82;21015;-71
2022/08/18 06:44:07;;;;;;;16.40;10.10;;;;;;;22.20;74.42;95361.28;1749639;82;21023;-70
2022/08/18 06:46:55;;;;;;;13.53;9.30;;;;;;;22.36;74.14;95365.11;1750417;82;21003;-70
2022/08/18 06:49:39;;;;;;;12.82;9.58;;;;;;;22.51;73.69;95360.50;1796340;80;21010;-70
2022/08/18 06:52:32;;;;;;;10.70;9.10;;;;;;;22.69;73.48;95355.66;1829465;78;21044;-70
2022/08/18 06:55:02;;;;;;;;;;;;;;;22.86;73.24;95360.72;1832436;78;21036;-70
2022/08/18 06:57:57;;;;;;;10.30;8.98;;;;;;;23.03;72.95;95350.59;1829583;78;20101;-70
2022/08/18 07:00:29;;;;;;;14.23;9.65;;;;;;;23.18;71.79;95356.70;1829947;78;20978;-70
2022/08/18 07:03:01;;;;;;;14.35;9.20;;;;;;;23.31;71.71;95353.52;1829690;78;21002;-70
2022/08/18 07:05:31;;;;;;;13.58;9.83;;;;;;;23.46;70.04;95352.40;1829901;78;20962;-70
2022/08/18 07:08:17;;;;;;;12.00;9.55;;;;;;;23.60;70.91;95356.75;1829690;78;21010;-70
2022/08/18 07:10:47;;;;;;;14.23;10.28;;;;;;;23.72;69.88;95351.84;1829814;78;21029;-70
2022/08/18 07:13:27;;;;;;;10.25;9.25;;;;;;;23.86;69.48;95353.98;1829653;78;20954;-71
2022/08/18 07:16:15;;;;;;;14.18;8.83;;;;;;;23.97;69.34;95351.34;1829721;78;20974;-71
2022/08/18 07:18:42;;;;;;;13.05;9.55;;;;;;;24.11;68.18;95356.53;1829478;78;20990;-70
2022/08/18 07:21:13;;;;;;;14.20;9.35;;;;;;;24.24;67.19;95355.14;1829787;78;20971;-70
2022/08/18 07:23:40;;;;;;;12.82;8.85;;;;;;;24.35;65.43;95355.65;1825934;78;21040;-70
2022/08/18 07:26:14;;;;;;;22.05;9.70;;;;;;;24.43;63.97;95359.11;1829515;78;20971;-71
2022/08/18 07:28:50;;;;;;;15.50;10.05;;;;;;;24.55;64.03;95351.45;1829750;78;21528;-71
2022/08/18 07:31:26;;;;;;;11.90;8.35;;;;;;;24.72;64.40;95347.41;1829604;78;20998;-71
2022/08/18 07:34:12;;;;;;;11.80;8.53;;;;;;;24.85;62.92;95352.23;1829411;78;21042;-71
2022/08/18 07:36:53;;;;;;;13.85;8.75;;;;;;;24.90;60.28;95346.47;1829778;78;20994;-71
2022/08/18 07:39:48;;;;;;;13.50;8.73;;;;;;;24.98;60.58;95346.22;1828796;78;21013;-70
2022/08/18 07:42:51;;;;;;;10.90;8.65;;;;;;;25.10;61.28;95340.33;1829993;78;20998;-71
2022/08/18 07:45:38;;;;;;;10.63;8.08;;;;;;;25.25;59.02;95345.88;1829758;78;21496;-71
2022/08/18 07:48:23;;;;;;;10.00;9.00;;;;;;;25.25;59.02;95345.88;1827665;78;21007;-69
2022/08/18 07:51:01;;;;;;;13.45;8.63;;;;;;;25.37;60.54;95345.85;1826089;78;21045;-71
2022/08/18 07:53:42;;;;;;;11.93;9.20;;;;;;;25.50;60.28;95348.41;1825767;78;21619;-70
2022/08/18 07:56:23;;;;;;;14.45;8.80;;;;;;;25.59;59.84;95343.11;1826223;78;20994;-70
2022/08/18 07:59:10;;;;;;;11.65;8.43;;;;;;;25.69;59.90;95346.77;1826264;78;21045;-71
2022/08/18 08:01:54;;;;;;;14.15;8.53;;;;;;;25.77;59.59;95347.48;1824446;78;21054;-70
2022/08/18 08:04:54;;;;;;;10.00;8.98;;;;;;;25.90;59.29;95344.19;1825737;78;21045;-70
2022/08/18 08:07:36;;;;;;;13.32;8.58;;;;;;;25.94;57.31;95338.52;1756975;78;21006;-70
2022/08/18 08:10:51;;;;;;;9.35;8.38;;;;;;;26.02;56.63;95344.13;1802826;78;21013;-71
2022/08/18 08:13:43;;;;;;;13.80;8.15;;;;;;;26.07;56.20;95344.59;1825772;78;20970;-70
2022/08/18 08:16:24;;;;;;;10.25;9.20;;;;;;;26.15;54.91;95344.80;1826145;78;20966;-69
2022/08/18 08:19:01;;;;;;;8.93;8.00;;;;;;;26.26;56.07;95351.53;1826035;78;21555;-69
2022/08/18 08:21:32;;;;;;;12.63;8.78;;;;;;;26.31;54.50;95344.37;1826099;78;21030;-69
2022/08/18 08:24:25;;;;;;;11.60;9.03;;;;;;;26.39;54.62;95348.63;1824598;78;20991;-69
2022/08/18 08:26:55;;;;;;;;;;;;;;;26.42;54.53;95346.16;1828395;78;21011;-69
2022/08/18 08:30:01;;;;;;;14.10;9.30;;;;;;;26.50;55.48;95357.17;1825828;78;20090;-68
2022/08/18 08:32:38;;;;;;;13.15;9.80;;;;;;;26.59;54.84;95342.05;1825713;78;21002;-69
2022/08/18 08:35:16;;;;;;;10.68;8.75;;;;;;;26.74;54.99;95338.86;1825783;78;21006;-68
2022/08/18 08:37:57;;;;;;;10.45;8.03;;;;;;;26.85;53.89;95342.48;1826094;78;20995;-69
2022/08/18 08:40:32;;;;;;;11.68;8.98;;;;;;;26.92;53.26;95338.25;1826376;78;20938;-68
2022/08/18 08:43:09;;;;;;;12.98;8.70;;;;;;;26.95;52.90;95334.77;1823792;78;21006;-69
2022/08/18 08:45:51;;;;;;;10.05;8.78;;;;;;;27.07;53.70;95345.02;1826486;78;20962;-68
2022/08/18 08:48:26;;;;;;;11.93;8.70;;;;;;;27.19;53.34;95339.91;1824718;78;21468;-68
2022/08/18 08:51:06;;;;;;;14.25;8.85;;;;;;;27.27;52.76;95332.45;1831909;78;21025;-68
2022/08/18 08:53:47;;;;;;;14.35;9.25;;;;;;;27.41;53.33;95340.17;1831979;78;21471;-69
2022/08/18 08:56:17;;;;;;;11.75;8.68;;;;;;;27.44;52.80;95340.40;1832044;78;21428;-68
2022/08/18 08:59:05;;;;;;;12.60;9.05;;;;;;;27.53;52.43;95339.58;1832015;78;21045;-69
2022/08/18 09:01:53;;;;;;;12.88;8.38;;;;;;;27.62;53.21;95336.05;1832036;78;20958;-69
2022/08/18 09:04:40;;;;;;;11.60;7.83;;;;;;;27.70;52.02;95339.42;1831725;78;21005;-68
2022/08/18 09:07:22;;;;;;;11.00;9.00;;;;;;;27.81;51.84;95338.43;1796651;78;21049;-69
2022/08/18 09:10:08;;;;;;;13.85;8.18;;;;;;;27.86;51.40;95334.83;1831524;78;21010;-69
2022/08/18 09:12:59;;;;;;;12.28;8.63;;;;;;;28.01;52.04;95336.13;1832248;78;20994;-69
2022/08/18 09:15:33;;;;;;;9.68;8.10;;;;;;;28.11;51.66;95332.07;1831893;78;21480;-68
2022/08/18 09:18:25;;;;;;;9.40;8.00;;;;;;;28.29;51.07;95329.50;1832010;78;21045;-68
2022/08/18 09:21:33;;;;;;;10.05;8.03;;;;;;;28.35;50.23;95335.73;1831924;78;20997;-68
2022/08/18 09:24:29;;;;;;;9.98;7.97;;;;;;;28.44;50.52;95337.59;1831790;78;21033;-68
2022/08/18 09:27:13;;;;;;;11.43;8.00;;;;;;;28.51;49.55;95338.39;1831830;78;21002;-69
2022/08/18 09:29:57;;;;;;;14.45;8.25;;;;;;;28.65;50.42;95333.84;1832193;78;20979;-68
2022/08/18 09:32:29;;;;;;;10.23;8.15;;;;;;;28.79;50.07;95329.32;1831913;78;21044;-69
2022/08/18 09:35:24;;;;;;;11.78;8.58;;;;;;;28.87;48.59;95338.09;1832198;78;21041;-69
2022/08/18 09:44:10;;;;;;;9.78;8.50;;;;;;;29.04;47.60;95333.77;1832202;78;20958;-68
2022/08/18 09:46:50;;;;;;;11.93;8.23;;;;;;;29.06;47.23;95334.52;1831696;78;20982;-68
2022/08/18 09:49:29;;;;;;;12.45;8.23;;;;;;;29.08;47.34;95328.41;1831332;78;21026;-69
2022/08/18 09:52:00;;;;;;;11.05;7.80;;;;;;;29.12;46.73;95327.11;1832032;78;20951;-69
2022/08/18 09:54:32;;;;;;;11.63;7.72;;;;;;;29.23;46.81;95329.66;1831734;78;20982;-69
2022/08/18 09:57:20;;;;;;;9.88;7.80;;;;;;;29.33;45.77;95330.47;1832044;78;20986;-69
2022/08/18 09:59:51;;;;;;;11.78;8.13;;;;;;;29.41;45.75;95325.64;1832006;78;21049;-70
2022/08/18 10:02:34;;;;;;;11.35;8.08;;;;;;;29.48;46.13;95330.84;1831997;78;20990;-71
2022/08/18 10:05:22;;;;;;;13.15;7.85;;;;;;;29.59;45.93;95323.48;1830623;78;21025;-71
2022/08/18 10:08:15;;;;;;;8.75;7.53;;;;;;;29.70;44.73;95320.57;1831766;78;21527;-70
2022/08/18 10:10:50;;;;;;;8.88;7.97;;;;;;;29.76;45.06;95327.63;1831630;78;21009;-70
2022/08/18 10:13:28;;;;;;;10.00;8.50;;;;;;;29.84;45.25;95331.45;1831119;78;21045;-70
2022/08/18 10:16:29;;;;;;;15.48;8.38;;;;;;;30.02;45.72;95325.52;1802274;78;21017;-71
2022/08/18 10:19:17;;;;;;;11.65;7.97;;;;;;;30.16;44.16;95326.34;1832026;78;21006;-71
2022/08/18 10:22:01;;;;;;;9.98;7.70;;;;;;;30.34;44.67;95332.30;1831858;78;20994;-70
2022/08/18 10:24:53;;;;;;;10.15;7.50;;;;;;;30.50;44.94;95333.81;1831873;78;21002;-70
2022/08/18 10:27:38;;;;;;;10.60;7.78;;;;;;;30.73;45.82;95327.87;1803966;78;21347;-71
2022/08/18 10:30:06;;;;;;;13.35;7.83;;;;;;;30.90;44.23;95326.16;1828702;78;21010;-71
2022/08/18 10:32:41;;;;;;;12.00;7.85;;;;;;;31.01;42.56;95330.81;1802097;78;21009;-71
2022/08/18 10:35:29;;;;;;;8.33;7.53;;;;;;;30.78;43.30;95333.69;1831827;78;21010;-71
2022/08/18 10:37:57;;;;;;;10.38;7.67;;;;;;;30.36;44.05;95342.53;1831896;78;21491;-71
2022/08/18 10:40:24;;;;;;;9.50;7.45;;;;;;;30.12;44.78;95341.77;1832234;78;21014;-71
2022/08/18 10:43:21;;;;;;;13.20;7.83;;;;;;;29.87;44.47;95340.14;1832050;78;21022;-70
2022/08/18 10:45:51;;;;;;;12.15;7.80;;;;;;;29.74;45.37;95334.23;1831999;78;21057;-71
2022/08/18 10:48:33;;;;;;;8.48;7.58;;;;;;;30.09;45.97;95336.13;1832096;78;21076;-70
2022/08/18 10:51:14;;;;;;;12.05;7.20;;;;;;;30.36;44.83;95335.72;1831735;78;21495;-71
2022/08/18 10:53:48;;;;;;;8.18;6.90;;;;;;;30.22;41.84;95337.11;1831464;78;21030;-71
2022/08/18 10:56:48;;;;;;;8.25;7.17;;;;;;;30.34;42.03;95333.17;1831994;78;21006;-71
2022/08/18 10:59:43;;;;;;;10.25;7.60;;;;;;;30.23;41.44;95340.16;1832015;78;21015;-70
2022/08/18 11:02:39;;;;;;;10.95;7.75;;;;;;;30.16;41.77;95342.67;1831882;78;21006;-70
2022/08/18 11:05:09;;;;;;;11.45;7.20;;;;;;;30.49;43.37;95335.32;1831897;78;21009;-70
2022/08/18 11:07:42;;;;;;;8.13;7.25;;;;;;;30.45;41.99;95338.03;1832025;78;21002;-70
2022/08/18 11:10:21;;;;;;;8.43;7.25;;;;;;;30.65;41.05;95323.22;1831729;78;21022;-70
2022/08/18 11:13:08;;;;;;;8.13;6.85;;;;;;;30.92;41.30;95330.43;1832113;78;21010;-70
2022/08/18 11:16:02;;;;;;;8.88;6.90;;;;;;;31.00;40.85;95328.27;1832002;78;21480;-70
2022/08/18 11:18:36;;;;;;;12.28;7.03;;;;;;;30.68;41.14;95328.85;1832182;78;21014;-70
2022/08/18 11:21:39;;;;;;;145.30;12.73;;;;;;;30.38;40.87;95336.42;1831870;78;21503;-70
2022/08/18 11:24:14;;;;;;;;;;;;;;;30.32;42.44;95333.83;1736553;83;21634;-70
2022/08/18 11:26:49;;;;;;;12.45;6.90;;;;;;;30.66;41.90;95334.95;1734460;83;20171;-71
2022/08/18 11:29:32;;;;;;;10.23;7.17;;;;;;;30.86;40.71;95335.14;1791102;78;21495;-71
2022/08/18 11:32:26;;;;;;;11.40;7.22;;;;;;;31.12;40.65;95335.16;1832015;78;20991;-71
2022/08/18 11:35:01;;;;;;;23.52;7.42;;;;;;;31.21;39.97;95334.17;1831840;78;21057;-71
2022/08/18 11:37:51;;;;;;;8.38;6.47;;;;;;;31.53;38.48;95336.76;1831917;78;20966;-71
2022/08/18 11:40:35;;;;;;;11.00;6.92;;;;;;;31.93;36.59;95328.86;1831507;78;21061;-71
2022/08/18 11:43:16;;;;;;;7.25;6.55;;;;;;;32.26;36.12;95333.94;1832147;78;20959;-71
2022/08/18 11:45:51;;;;;;;8.38;6.80;;;;;;;32.70;36.50;95331.76;1831708;78;21013;-71
2022/08/18 11:48:29;;;;;;;10.88;7.08;;;;;;;33.25;37.02;95331.55;1830463;78;21073;-71
2022/08/18 11:51:00;;;;;;;7.47;6.62;;;;;;;33.70;35.96;95336.91;1821273;79;21469;-71
2022/08/18 11:53:58;;;;;;;12.73;7.12;;;;;;;34.04;33.31;95327.48;1821407;79;21041;-71
2022/08/18 11:56:35;;;;;;;8.93;6.47;;;;;;;33.74;34.35;95333.28;1820767;79;21465;-71
2022/08/18 11:59:30;;;;;;;8.05;6.85;;;;;;;33.46;34.45;95326.86;1821076;79;21126;-71
2022/08/18 12:01:58;;;;;;;12.53;6.53;;;;;;;33.99;34.77;95329.91;1809754;79;20971;-70
2022/08/18 12:04:38;;;;;;;8.55;6.47;;;;;;;34.52;33.12;95326.00;1821413;79;20980;-71
2022/08/18 12:07:15;;;;;;;9.88;6.37;;;;;;;35.03;31.62;95316.67;1821100;79;21472;-71
2022/08/18 12:09:46;;;;;;;12.10;6.62;;;;;;;35.25;30.50;95317.69;1821347;79;21006;-70
2022/08/18 12:12:31;;;;;;;8.05;6.50;;;;;;;35.27;30.48;95316.98;1821231;79;20974;-70
2022/08/18 12:15:18;;;;;;;13.00;6.75;;;;;;;34.75;31.21;95309.57;1821396;79;21014;-71
2022/08/18 12:17:47;;;;;;;8.50;6.53;;;;;;;34.39;31.75;95317.03;1821410;79;20999;-70
2022/08/18 12:20:15;;;;;;;18.65;7.37;;;;;;;33.81;32.65;95317.86;1821034;79;20990;-70
2022/08/18 12:22:45;;;;;;;8.00;7.30;;;;;;;33.39;33.76;95317.65;1821348;79;20947;-70